sensor_id;sensor_type;location;lat;lon;timestamp;P1;durP1;ratioP1;P2;durP2;ratioP2
53757;SDS011;39674;59.860;30.672;2022-11-15T01:01:10;321.73;;;303.95;;
53757;SDS011;39674;59.860;30.672;2022-11-15T01:13:25;363.23;;;343.13;;
53757;SDS011;39674;59.860;30.672;2022-11-15T01:57:07;354.70;;;335.27;;
53757;SDS011;39674;59.860;30.672;2022-11-15T02:00:31;372.10;;;351.83;;
53757;SDS011;39674;59.860;30.672;2022-11-15T02:03:31;328.77;;;311.15;;
53757;SDS011;39674;59.860;30.672;2022-11-15T02:06:33;420.88;;;396.80;;
53757;SDS011;39674;59.860;30.672;2022-11-15T02:09:23;396.08;;;373.95;;
53757;SDS011;39674;59.860;30.672;2022-11-15T02:12:16;469.30;;;442.15;;
53757;SDS011;39674;59.860;30.672;2022-11-15T02:15:07;465.30;;;438.48;;
53757;SDS011;39674;59.860;30.672;2022-11-15T02:18:06;473.13;;;446.33;;
53757;SDS011;39674;59.860;30.672;2022-11-15T02:21:16;446.45;;;420.67;;
53757;SDS011;39674;59.860;30.672;2022-11-15T02:24:24;477.50;;;450.05;;
53757;SDS011;39674;59.860;30.672;2022-11-15T02:31:01;443.45;;;418.00;;
53757;SDS011;39674;59.860;30.672;2022-11-15T02:34:00;436.50;;;411.00;;
53757;SDS011;39674;59.860;30.672;2022-11-15T02:37:11;477.90;;;450.55;;
53757;SDS011;39674;59.860;30.672;2022-11-15T02:40:16;482.30;;;453.83;;
53757;SDS011;39674;59.860;30.672;2022-11-15T02:43:14;504.15;;;474.25;;
53757;SDS011;39674;59.860;30.672;2022-11-15T02:46:30;497.60;;;468.38;;
53757;SDS011;39674;59.860;30.672;2022-11-15T02:49:43;475.35;;;447.42;;
53757;SDS011;39674;59.860;30.672;2022-11-15T02:52:34;485.83;;;457.00;;
53757;SDS011;39674;59.860;30.672;2022-11-15T02:55:30;470.52;;;443.25;;
53757;SDS011;39674;59.860;30.672;2022-11-15T02:58:32;520.45;;;489.20;;
53757;SDS011;39674;59.860;30.672;2022-11-15T03:01:41;497.67;;;468.83;;
53757;SDS011;39674;59.860;30.672;2022-11-15T03:04:40;414.13;;;390.83;;
53757;SDS011;39674;59.860;30.672;2022-11-15T03:07:35;501.58;;;472.33;;
53757;SDS011;39674;59.860;30.672;2022-11-15T03:10:40;435.63;;;410.85;;
53757;SDS011;39674;59.860;30.672;2022-11-15T03:13:43;492.33;;;463.63;;
53757;SDS011;39674;59.860;30.672;2022-11-15T03:16:44;487.73;;;459.63;;
53757;SDS011;39674;59.860;30.672;2022-11-15T03:19:40;500.45;;;470.80;;
53757;SDS011;39674;59.860;30.672;2022-11-15T03:22:30;521.53;;;491.15;;
53757;SDS011;39674;59.860;30.672;2022-11-15T03:25:23;535.75;;;503.20;;
53757;SDS011;39674;59.860;30.672;2022-11-15T03:28:16;526.65;;;495.00;;
53757;SDS011;39674;59.860;30.672;2022-11-15T03:31:07;497.00;;;467.40;;
53757;SDS011;39674;59.860;30.672;2022-11-15T03:34:14;503.08;;;473.30;;
53757;SDS011;39674;59.860;30.672;2022-11-15T03:37:06;515.50;;;484.00;;
53757;SDS011;39674;59.860;30.672;2022-11-15T03:39:55;548.47;;;515.50;;
53757;SDS011;39674;59.860;30.672;2022-11-15T03:42:46;563.85;;;529.67;;
53757;SDS011;39674;59.860;30.672;2022-11-15T03:45:43;532.83;;;500.20;;
53757;SDS011;39674;59.860;30.672;2022-11-15T03:48:37;543.50;;;510.33;;
53757;SDS011;39674;59.860;30.672;2022-11-15T03:51:30;549.78;;;516.58;;
53757;SDS011;39674;59.860;30.672;2022-11-15T03:54:18;554.22;;;520.35;;
53757;SDS011;39674;59.860;30.672;2022-11-15T03:57:05;567.67;;;531.92;;
53757;SDS011;39674;59.860;30.672;2022-11-15T03:59:52;583.03;;;547.47;;
53757;SDS011;39674;59.860;30.672;2022-11-15T04:02:39;579.38;;;543.05;;
53757;SDS011;39674;59.860;30.672;2022-11-15T04:05:26;532.33;;;499.42;;
53757;SDS011;39674;59.860;30.672;2022-11-15T04:08:16;560.45;;;526.60;;
53757;SDS011;39674;59.860;30.672;2022-11-15T04:11:03;562.15;;;527.22;;
53757;SDS011;39674;59.860;30.672;2022-11-15T04:13:50;553.92;;;520.05;;
53757;SDS011;39674;59.860;30.672;2022-11-15T04:16:37;543.60;;;511.27;;
53757;SDS011;39674;59.860;30.672;2022-11-15T04:19:24;544.33;;;511.65;;
53757;SDS011;39674;59.860;30.672;2022-11-15T04:22:28;532.13;;;499.75;;
53757;SDS011;39674;59.860;30.672;2022-11-15T04:25:35;539.05;;;506.40;;
53757;SDS011;39674;59.860;30.672;2022-11-15T04:28:22;554.78;;;520.88;;
53757;SDS011;39674;59.860;30.672;2022-11-15T04:31:09;544.22;;;511.08;;
53757;SDS011;39674;59.860;30.672;2022-11-15T04:33:57;559.75;;;525.03;;
53757;SDS011;39674;59.860;30.672;2022-11-15T04:36:48;548.45;;;515.22;;
53757;SDS011;39674;59.860;30.672;2022-11-15T04:39:55;528.15;;;496.67;;
53757;SDS011;39674;59.860;30.672;2022-11-15T04:42:55;533.38;;;501.55;;
53757;SDS011;39674;59.860;30.672;2022-11-15T04:45:47;515.72;;;485.42;;
53757;SDS011;39674;59.860;30.672;2022-11-15T04:48:35;528.60;;;496.50;;
53757;SDS011;39674;59.860;30.672;2022-11-15T04:51:24;548.58;;;515.33;;
53757;SDS011;39674;59.860;30.672;2022-11-15T04:54:21;547.30;;;513.63;;
53757;SDS011;39674;59.860;30.672;2022-11-15T04:57:12;540.30;;;507.30;;
53757;SDS011;39674;59.860;30.672;2022-11-15T05:00:10;535.38;;;502.38;;
53757;SDS011;39674;59.860;30.672;2022-11-15T05:03:09;534.10;;;501.50;;
53757;SDS011;39674;59.860;30.672;2022-11-15T05:06:18;532.50;;;499.55;;
53757;SDS011;39674;59.860;30.672;2022-11-15T05:09:08;538.85;;;505.70;;
53757;SDS011;39674;59.860;30.672;2022-11-15T05:12:00;557.67;;;523.55;;
53757;SDS011;39674;59.860;30.672;2022-11-15T05:14:54;544.20;;;510.67;;
53757;SDS011;39674;59.860;30.672;2022-11-15T05:17:48;525.92;;;493.80;;
53757;SDS011;39674;59.860;30.672;2022-11-15T05:20:37;547.53;;;513.35;;
53757;SDS011;39674;59.860;30.672;2022-11-15T05:23:27;548.00;;;514.53;;
53757;SDS011;39674;59.860;30.672;2022-11-15T05:26:24;522.13;;;490.95;;
53757;SDS011;39674;59.860;30.672;2022-11-15T05:29:19;519.53;;;487.85;;
53757;SDS011;39674;59.860;30.672;2022-11-15T05:32:16;553.78;;;519.85;;
53757;SDS011;39674;59.860;30.672;2022-11-15T05:35:21;539.53;;;506.20;;
53757;SDS011;39674;59.860;30.672;2022-11-15T05:38:30;477.08;;;448.77;;
53757;SDS011;39674;59.860;30.672;2022-11-15T05:41:29;521.15;;;490.55;;
53757;SDS011;39674;59.860;30.672;2022-11-15T05:44:31;492.17;;;462.80;;
53757;SDS011;39674;59.860;30.672;2022-11-15T05:47:24;507.25;;;476.65;;
53757;SDS011;39674;59.860;30.672;2022-11-15T05:50:20;524.50;;;493.50;;
53757;SDS011;39674;59.860;30.672;2022-11-15T05:53:12;538.38;;;506.33;;
53757;SDS011;39674;59.860;30.672;2022-11-15T05:56:11;501.48;;;471.85;;
53757;SDS011;39674;59.860;30.672;2022-11-15T05:59:09;506.90;;;477.08;;
53757;SDS011;39674;59.860;30.672;2022-11-15T06:02:02;526.65;;;495.60;;
53757;SDS011;39674;59.860;30.672;2022-11-15T06:05:04;515.60;;;485.00;;
53757;SDS011;39674;59.860;30.672;2022-11-15T06:08:03;522.80;;;491.42;;
53757;SDS011;39674;59.860;30.672;2022-11-15T06:11:05;521.85;;;491.13;;
53757;SDS011;39674;59.860;30.672;2022-11-15T06:13:55;500.75;;;471.40;;
53757;SDS011;39674;59.860;30.672;2022-11-15T06:16:49;499.98;;;470.40;;
53757;SDS011;39674;59.860;30.672;2022-11-15T06:19:41;507.42;;;477.95;;
53757;SDS011;39674;59.860;30.672;2022-11-15T06:22:32;504.48;;;474.55;;
53757;SDS011;39674;59.860;30.672;2022-11-15T06:25:22;513.22;;;482.73;;
53757;SDS011;39674;59.860;30.672;2022-11-15T06:28:39;518.70;;;487.88;;
53757;SDS011;39674;59.860;30.672;2022-11-15T06:31:43;496.85;;;468.13;;
53757;SDS011;39674;59.860;30.672;2022-11-15T06:34:40;494.88;;;465.73;;
53757;SDS011;39674;59.860;30.672;2022-11-15T06:37:42;470.17;;;443.05;;
53757;SDS011;39674;59.860;30.672;2022-11-15T06:41:00;481.77;;;453.88;;
53757;SDS011;39674;59.860;30.672;2022-11-15T06:44:00;486.13;;;458.00;;
53757;SDS011;39674;59.860;30.672;2022-11-15T06:47:20;466.95;;;440.10;;
53757;SDS011;39674;59.860;30.672;2022-11-15T06:50:17;460.80;;;434.40;;
53757;SDS011;39674;59.860;30.672;2022-11-15T06:53:06;482.50;;;454.70;;
53757;SDS011;39674;59.860;30.672;2022-11-15T06:55:59;498.85;;;470.50;;
53757;SDS011;39674;59.860;30.672;2022-11-15T06:58:58;496.20;;;467.08;;
53757;SDS011;39674;59.860;30.672;2022-11-15T07:01:52;505.17;;;475.27;;
53757;SDS011;39674;59.860;30.672;2022-11-15T07:04:42;523.85;;;493.10;;
53757;SDS011;39674;59.860;30.672;2022-11-15T07:07:31;503.88;;;474.52;;
53757;SDS011;39674;59.860;30.672;2022-11-15T07:10:27;509.95;;;480.65;;
53757;SDS011;39674;59.860;30.672;2022-11-15T07:13:17;494.88;;;465.98;;
53757;SDS011;39674;59.860;30.672;2022-11-15T07:16:29;502.85;;;473.27;;
53757;SDS011;39674;59.860;30.672;2022-11-15T07:19:18;486.42;;;458.65;;
53757;SDS011;39674;59.860;30.672;2022-11-15T07:22:25;484.92;;;457.52;;
53757;SDS011;39674;59.860;30.672;2022-11-15T07:26:08;467.27;;;440.77;;
53757;SDS011;39674;59.860;30.672;2022-11-15T07:28:46;486.17;;;458.30;;
53757;SDS011;39674;59.860;30.672;2022-11-15T07:31:51;483.45;;;455.13;;
53757;SDS011;39674;59.860;30.672;2022-11-15T07:34:48;478.25;;;451.00;;
53757;SDS011;39674;59.860;30.672;2022-11-15T07:37:56;508.65;;;479.88;;
53757;SDS011;39674;59.860;30.672;2022-11-15T07:40:55;491.90;;;463.05;;
53757;SDS011;39674;59.860;30.672;2022-11-15T07:43:53;477.98;;;450.52;;
53757;SDS011;39674;59.860;30.672;2022-11-15T07:46:50;498.88;;;470.42;;
53757;SDS011;39674;59.860;30.672;2022-11-15T07:49:47;487.00;;;458.70;;
53757;SDS011;39674;59.860;30.672;2022-11-15T07:52:37;525.53;;;494.83;;
53757;SDS011;39674;59.860;30.672;2022-11-15T07:55:39;513.38;;;483.15;;
53757;SDS011;39674;59.860;30.672;2022-11-15T07:58:33;513.17;;;482.65;;
53757;SDS011;39674;59.860;30.672;2022-11-15T08:01:26;526.60;;;495.40;;
53757;SDS011;39674;59.860;30.672;2022-11-15T08:04:21;538.90;;;507.90;;
53757;SDS011;39674;59.860;30.672;2022-11-15T08:07:27;502.77;;;473.10;;
53757;SDS011;39674;59.860;30.672;2022-11-15T08:10:33;504.90;;;475.33;;
53757;SDS011;39674;59.860;30.672;2022-11-15T08:13:26;543.40;;;510.73;;
53757;SDS011;39674;59.860;30.672;2022-11-15T08:16:57;536.33;;;504.40;;
53757;SDS011;39674;59.860;30.672;2022-11-15T08:19:42;491.10;;;462.25;;
53757;SDS011;39674;59.860;30.672;2022-11-15T08:22:39;532.80;;;500.35;;
53757;SDS011;39674;59.860;30.672;2022-11-15T08:25:38;516.60;;;485.65;;
53757;SDS011;39674;59.860;30.672;2022-11-15T08:28:31;512.90;;;481.80;;
53757;SDS011;39674;59.860;30.672;2022-11-15T08:31:24;487.42;;;458.67;;
53757;SDS011;39674;59.860;30.672;2022-11-15T08:34:27;527.60;;;497.10;;
53757;SDS011;39674;59.860;30.672;2022-11-15T08:37:22;512.88;;;483.00;;
53757;SDS011;39674;59.860;30.672;2022-11-15T08:40:23;510.50;;;480.30;;
53757;SDS011;39674;59.860;30.672;2022-11-15T08:43:15;509.17;;;478.67;;
53757;SDS011;39674;59.860;30.672;2022-11-15T08:46:15;512.38;;;482.48;;
53757;SDS011;39674;59.860;30.672;2022-11-15T08:49:12;534.85;;;503.23;;
53757;SDS011;39674;59.860;30.672;2022-11-15T08:52:09;532.45;;;500.92;;
53757;SDS011;39674;59.860;30.672;2022-11-15T08:54:58;535.00;;;503.30;;
53757;SDS011;39674;59.860;30.672;2022-11-15T08:57:58;533.03;;;500.80;;
53757;SDS011;39674;59.860;30.672;2022-11-15T09:00:50;544.35;;;511.95;;
53757;SDS011;39674;59.860;30.672;2022-11-15T09:03:47;549.72;;;516.28;;
53757;SDS011;39674;59.860;30.672;2022-11-15T09:06:45;550.80;;;516.90;;
53757;SDS011;39674;59.860;30.672;2022-11-15T09:09:38;562.15;;;528.08;;
53757;SDS011;39674;59.860;30.672;2022-11-15T09:12:30;550.60;;;517.45;;
53757;SDS011;39674;59.860;30.672;2022-11-15T09:15:23;549.83;;;516.47;;
53757;SDS011;39674;59.860;30.672;2022-11-15T09:18:21;593.15;;;556.60;;
53757;SDS011;39674;59.860;30.672;2022-11-15T09:21:19;555.75;;;522.20;;
53757;SDS011;39674;59.860;30.672;2022-11-15T09:24:12;548.05;;;514.83;;
53757;SDS011;39674;59.860;30.672;2022-11-15T09:27:04;556.05;;;521.70;;
53757;SDS011;39674;59.860;30.672;2022-11-15T09:29:57;570.77;;;535.57;;
53757;SDS011;39674;59.860;30.672;2022-11-15T09:32:53;562.60;;;528.65;;
53757;SDS011;39674;59.860;30.672;2022-11-15T09:35:45;566.75;;;531.97;;
53757;SDS011;39674;59.860;30.672;2022-11-15T09:38:40;582.10;;;546.40;;
53757;SDS011;39674;59.860;30.672;2022-11-15T09:41:33;560.70;;;525.90;;
53757;SDS011;39674;59.860;30.672;2022-11-15T09:44:42;559.03;;;524.60;;
53757;SDS011;39674;59.860;30.672;2022-11-15T09:51:33;503.75;;;474.52;;
53757;SDS011;39674;59.860;30.672;2022-11-15T09:54:18;549.35;;;516.33;;
53757;SDS011;39674;59.860;30.672;2022-11-15T09:57:03;547.25;;;513.60;;
53757;SDS011;39674;59.860;30.672;2022-11-15T09:59:44;573.97;;;539.22;;
53757;SDS011;39674;59.860;30.672;2022-11-15T10:02:31;551.22;;;518.03;;
53757;SDS011;39674;59.860;30.672;2022-11-15T10:05:12;574.78;;;539.55;;
53757;SDS011;39674;59.860;30.672;2022-11-15T10:07:52;579.28;;;543.55;;
53757;SDS011;39674;59.860;30.672;2022-11-15T10:10:41;562.78;;;528.65;;
53757;SDS011;39674;59.860;30.672;2022-11-15T10:13:15;558.63;;;523.53;;
53757;SDS011;39674;59.860;30.672;2022-11-15T10:15:52;581.03;;;545.10;;
53757;SDS011;39674;59.860;30.672;2022-11-15T10:18:37;558.78;;;524.80;;
53757;SDS011;39674;59.860;30.672;2022-11-15T10:21:35;568.00;;;533.58;;
53757;SDS011;39674;59.860;30.672;2022-11-15T10:24:15;548.03;;;514.28;;
53757;SDS011;39674;59.860;30.672;2022-11-15T10:27:00;573.92;;;538.85;;
53757;SDS011;39674;59.860;30.672;2022-11-15T10:30:06;553.00;;;518.65;;
53757;SDS011;39674;59.860;30.672;2022-11-15T10:32:51;552.17;;;518.72;;
53757;SDS011;39674;59.860;30.672;2022-11-15T10:38:58;520.03;;;488.77;;
53757;SDS011;39674;59.860;30.672;2022-11-15T10:41:39;574.40;;;539.00;;
53757;SDS011;39674;59.860;30.672;2022-11-15T10:44:41;575.90;;;540.85;;
53757;SDS011;39674;59.860;30.672;2022-11-15T10:47:25;554.55;;;521.08;;
53757;SDS011;39674;59.860;30.672;2022-11-15T10:50:01;579.42;;;544.00;;
53757;SDS011;39674;59.860;30.672;2022-11-15T10:53:20;534.90;;;503.00;;
53757;SDS011;39674;59.860;30.672;2022-11-15T10:56:02;562.08;;;528.17;;
53757;SDS011;39674;59.860;30.672;2022-11-15T10:59:13;555.15;;;521.70;;
53757;SDS011;39674;59.860;30.672;2022-11-15T11:01:56;550.67;;;517.58;;
53757;SDS011;39674;59.860;30.672;2022-11-15T11:04:51;556.97;;;522.63;;
53757;SDS011;39674;59.860;30.672;2022-11-15T11:07:27;546.60;;;513.50;;
53757;SDS011;39674;59.860;30.672;2022-11-15T11:10:20;558.63;;;524.97;;
53757;SDS011;39674;59.860;30.672;2022-11-15T11:13:21;574.97;;;539.30;;
53757;SDS011;39674;59.860;30.672;2022-11-15T11:16:30;537.80;;;505.65;;
53757;SDS011;39674;59.860;30.672;2022-11-15T11:19:14;595.78;;;553.35;;
53757;SDS011;39674;59.860;30.672;2022-11-15T11:22:04;525.22;;;493.75;;
53757;SDS011;39674;59.860;30.672;2022-11-15T11:25:20;532.05;;;500.75;;
53757;SDS011;39674;59.860;30.672;2022-11-15T11:28:02;538.20;;;505.70;;
53757;SDS011;39674;59.860;30.672;2022-11-15T11:30:54;535.15;;;503.52;;
53757;SDS011;39674;59.860;30.672;2022-11-15T11:33:48;526.65;;;495.30;;
53757;SDS011;39674;59.860;30.672;2022-11-15T11:36:31;545.13;;;512.03;;
53757;SDS011;39674;59.860;30.672;2022-11-15T11:39:21;545.75;;;512.67;;
53757;SDS011;39674;59.860;30.672;2022-11-15T11:42:03;565.60;;;530.55;;
53757;SDS011;39674;59.860;30.672;2022-11-15T11:49:00;521.50;;;491.10;;
53757;SDS011;39674;59.860;30.672;2022-11-15T11:51:45;511.88;;;481.63;;
53757;SDS011;39674;59.860;30.672;2022-11-15T11:54:58;523.50;;;492.60;;
53757;SDS011;39674;59.860;30.672;2022-11-15T11:57:53;533.60;;;501.55;;
53757;SDS011;39674;59.860;30.672;2022-11-15T12:05:54;451.58;;;425.73;;
53757;SDS011;39674;59.860;30.672;2022-11-15T12:08:30;463.60;;;436.95;;
53757;SDS011;39674;59.860;30.672;2022-11-15T12:12:21;431.85;;;407.77;;
53757;SDS011;39674;59.860;30.672;2022-11-15T12:15:31;474.92;;;447.55;;
53757;SDS011;39674;59.860;30.672;2022-11-15T12:18:33;502.02;;;471.60;;
53757;SDS011;39674;59.860;30.672;2022-11-15T12:21:31;490.55;;;462.17;;
53757;SDS011;39674;59.860;30.672;2022-11-15T12:24:16;481.10;;;452.73;;
53757;SDS011;39674;59.860;30.672;2022-11-15T12:26:58;462.55;;;436.20;;
53757;SDS011;39674;59.860;30.672;2022-11-15T12:29:39;500.98;;;471.02;;
53757;SDS011;39674;59.860;30.672;2022-11-15T12:32:30;496.58;;;467.60;;
53757;SDS011;39674;59.860;30.672;2022-11-15T12:35:56;470.98;;;444.20;;
53757;SDS011;39674;59.860;30.672;2022-11-15T12:39:00;421.90;;;397.08;;
53757;SDS011;39674;59.860;30.672;2022-11-15T12:55:00;454.00;;;427.83;;
53757;SDS011;39674;59.860;30.672;2022-11-15T12:58:11;471.50;;;444.60;;
53757;SDS011;39674;59.860;30.672;2022-11-15T13:04:28;437.15;;;412.48;;
53757;SDS011;39674;59.860;30.672;2022-11-15T13:07:05;483.80;;;456.25;;
53757;SDS011;39674;59.860;30.672;2022-11-15T13:09:55;495.98;;;467.35;;
53757;SDS011;39674;59.860;30.672;2022-11-15T13:12:51;488.30;;;459.80;;
53757;SDS011;39674;59.860;30.672;2022-11-15T13:15:33;502.35;;;473.27;;
53757;SDS011;39674;59.860;30.672;2022-11-15T13:21:23;460.30;;;434.15;;
53757;SDS011;39674;59.860;30.672;2022-11-15T13:24:21;454.13;;;428.23;;
53757;SDS011;39674;59.860;30.672;2022-11-15T13:26:51;477.30;;;449.30;;
53757;SDS011;39674;59.860;30.672;2022-11-15T13:29:21;526.65;;;495.25;;
53757;SDS011;39674;59.860;30.672;2022-11-15T13:32:01;530.08;;;498.80;;
53757;SDS011;39674;59.860;30.672;2022-11-15T13:34:30;527.78;;;496.13;;
53757;SDS011;39674;59.860;30.672;2022-11-15T13:40:23;509.90;;;480.27;;
53757;SDS011;39674;59.860;30.672;2022-11-15T13:43:00;491.42;;;462.83;;
53757;SDS011;39674;59.860;30.672;2022-11-15T13:46:13;476.30;;;448.45;;
53757;SDS011;39674;59.860;30.672;2022-11-15T13:48:52;504.45;;;474.67;;
53757;SDS011;39674;59.860;30.672;2022-11-15T13:51:32;510.50;;;479.77;;
53757;SDS011;39674;59.860;30.672;2022-11-15T13:54:16;524.55;;;493.27;;
53757;SDS011;39674;59.860;30.672;2022-11-15T13:56:53;528.00;;;496.48;;
53757;SDS011;39674;59.860;30.672;2022-11-15T13:59:26;532.42;;;500.83;;
53757;SDS011;39674;59.860;30.672;2022-11-15T14:02:11;559.83;;;525.08;;
53757;SDS011;39674;59.860;30.672;2022-11-15T14:04:45;540.63;;;507.90;;
53757;SDS011;39674;59.860;30.672;2022-11-15T14:07:29;549.63;;;516.60;;
53757;SDS011;39674;59.860;30.672;2022-11-15T14:10:27;518.75;;;487.85;;
53757;SDS011;39674;59.860;30.672;2022-11-15T14:13:04;552.97;;;520.22;;
53757;SDS011;39674;59.860;30.672;2022-11-15T14:15:53;536.75;;;505.02;;
53757;SDS011;39674;59.860;30.672;2022-11-15T14:18:40;554.80;;;520.92;;
53757;SDS011;39674;59.860;30.672;2022-11-15T14:21:18;541.80;;;509.25;;
53757;SDS011;39674;59.860;30.672;2022-11-15T14:23:52;552.15;;;518.35;;
53757;SDS011;39674;59.860;30.672;2022-11-15T14:26:58;506.40;;;476.45;;
53757;SDS011;39674;59.860;30.672;2022-11-15T14:30:05;533.22;;;501.40;;
53757;SDS011;39674;59.860;30.672;2022-11-15T14:32:43;536.47;;;504.52;;
53757;SDS011;39674;59.860;30.672;2022-11-15T14:35:24;541.03;;;507.83;;
53757;SDS011;39674;59.860;30.672;2022-11-15T14:37:53;573.75;;;538.90;;
53757;SDS011;39674;59.860;30.672;2022-11-15T14:40:27;572.30;;;537.10;;
53757;SDS011;39674;59.860;30.672;2022-11-15T14:43:00;552.90;;;519.28;;
53757;SDS011;39674;59.860;30.672;2022-11-15T14:45:28;563.40;;;526.72;;
53757;SDS011;39674;59.860;30.672;2022-11-15T14:48:04;544.20;;;510.90;;
53757;SDS011;39674;59.860;30.672;2022-11-15T14:50:33;581.28;;;544.75;;
53757;SDS011;39674;59.860;30.672;2022-11-15T14:53:06;577.03;;;540.65;;
53757;SDS011;39674;59.860;30.672;2022-11-15T14:55:42;567.75;;;532.63;;
53757;SDS011;39674;59.860;30.672;2022-11-15T14:58:18;567.10;;;532.08;;
53757;SDS011;39674;59.860;30.672;2022-11-15T15:00:49;550.95;;;516.78;;
53757;SDS011;39674;59.860;30.672;2022-11-15T15:03:20;561.30;;;526.65;;
53757;SDS011;39674;59.860;30.672;2022-11-15T15:05:53;576.45;;;541.33;;
53757;SDS011;39674;59.860;30.672;2022-11-15T15:08:23;582.70;;;546.03;;
53757;SDS011;39674;59.860;30.672;2022-11-15T15:10:52;571.72;;;535.40;;
53757;SDS011;39674;59.860;30.672;2022-11-15T15:13:27;573.73;;;538.47;;
53757;SDS011;39674;59.860;30.672;2022-11-15T15:15:58;560.90;;;526.10;;
53757;SDS011;39674;59.860;30.672;2022-11-15T15:18:27;574.45;;;538.75;;
53757;SDS011;39674;59.860;30.672;2022-11-15T15:20:57;582.00;;;546.00;;
53757;SDS011;39674;59.860;30.672;2022-11-15T15:23:37;553.50;;;519.63;;
53757;SDS011;39674;59.860;30.672;2022-11-15T15:26:08;585.15;;;549.30;;
53757;SDS011;39674;59.860;30.672;2022-11-15T15:28:39;552.83;;;518.45;;
53757;SDS011;39674;59.860;30.672;2022-11-15T15:31:08;583.58;;;546.85;;
53757;SDS011;39674;59.860;30.672;2022-11-15T15:33:37;575.20;;;539.50;;
53757;SDS011;39674;59.860;30.672;2022-11-15T15:36:08;577.33;;;541.55;;
53757;SDS011;39674;59.860;30.672;2022-11-15T15:38:44;565.97;;;530.60;;
53757;SDS011;39674;59.860;30.672;2022-11-15T15:41:13;587.13;;;550.03;;
53757;SDS011;39674;59.860;30.672;2022-11-15T15:43:46;563.05;;;528.85;;
53757;SDS011;39674;59.860;30.672;2022-11-15T15:46:18;560.97;;;525.92;;
53757;SDS011;39674;59.860;30.672;2022-11-15T15:48:50;576.63;;;541.45;;
53757;SDS011;39674;59.860;30.672;2022-11-15T15:51:20;570.72;;;535.30;;
53757;SDS011;39674;59.860;30.672;2022-11-15T15:53:49;558.17;;;523.35;;
53757;SDS011;39674;59.860;30.672;2022-11-15T15:56:24;555.10;;;521.40;;
53757;SDS011;39674;59.860;30.672;2022-11-15T15:58:56;524.55;;;492.52;;
53757;SDS011;39674;59.860;30.672;2022-11-15T16:01:28;539.55;;;507.02;;
53757;SDS011;39674;59.860;30.672;2022-11-15T16:03:58;550.70;;;516.72;;
53757;SDS011;39674;59.860;30.672;2022-11-15T16:06:35;561.70;;;527.47;;
53757;SDS011;39674;59.860;30.672;2022-11-15T16:09:06;544.08;;;510.95;;
53757;SDS011;39674;59.860;30.672;2022-11-15T16:11:39;559.17;;;525.05;;
53757;SDS011;39674;59.860;30.672;2022-11-15T16:14:13;542.90;;;510.13;;
53757;SDS011;39674;59.860;30.672;2022-11-15T16:16:42;570.60;;;535.55;;
53757;SDS011;39674;59.860;30.672;2022-11-15T16:19:11;560.58;;;526.63;;
53757;SDS011;39674;59.860;30.672;2022-11-15T16:21:44;545.08;;;512.15;;
53757;SDS011;39674;59.860;30.672;2022-11-15T16:24:13;569.20;;;533.97;;
53757;SDS011;39674;59.860;30.672;2022-11-15T16:26:42;545.90;;;512.13;;
53757;SDS011;39674;59.860;30.672;2022-11-15T16:29:16;544.40;;;511.48;;
53757;SDS011;39674;59.860;30.672;2022-11-15T16:31:45;539.13;;;506.60;;
53757;SDS011;39674;59.860;30.672;2022-11-15T16:34:15;566.92;;;532.08;;
53757;SDS011;39674;59.860;30.672;2022-11-15T16:36:47;551.65;;;517.95;;
53757;SDS011;39674;59.860;30.672;2022-11-15T16:39:20;569.20;;;533.92;;
53757;SDS011;39674;59.860;30.672;2022-11-15T16:41:51;549.88;;;516.65;;
53757;SDS011;39674;59.860;30.672;2022-11-15T16:44:25;560.80;;;526.38;;
53757;SDS011;39674;59.860;30.672;2022-11-15T16:46:55;557.88;;;524.08;;
53757;SDS011;39674;59.860;30.672;2022-11-15T16:49:25;530.17;;;498.52;;
53757;SDS011;39674;59.860;30.672;2022-11-15T16:51:54;532.35;;;500.48;;
53757;SDS011;39674;59.860;30.672;2022-11-15T16:54:50;498.65;;;469.40;;
53757;SDS011;39674;59.860;30.672;2022-11-15T16:57:22;525.88;;;493.90;;
53757;SDS011;39674;59.860;30.672;2022-11-15T16:59:53;534.35;;;502.13;;
53757;SDS011;39674;59.860;30.672;2022-11-15T17:02:22;504.10;;;474.63;;
53757;SDS011;39674;59.860;30.672;2022-11-15T17:04:51;520.50;;;489.50;;
53757;SDS011;39674;59.860;30.672;2022-11-15T17:07:20;543.13;;;510.65;;
53757;SDS011;39674;59.860;30.672;2022-11-15T17:09:50;522.80;;;491.60;;
53757;SDS011;39674;59.860;30.672;2022-11-15T17:12:23;548.70;;;515.72;;
53757;SDS011;39674;59.860;30.672;2022-11-15T17:15:25;469.15;;;442.38;;
53757;SDS011;39674;59.860;30.672;2022-11-15T17:17:55;536.30;;;504.63;;
53757;SDS011;39674;59.860;30.672;2022-11-15T17:20:30;511.83;;;481.88;;
53757;SDS011;39674;59.860;30.672;2022-11-15T17:23:01;533.50;;;502.00;;
53757;SDS011;39674;59.860;30.672;2022-11-15T17:25:41;564.40;;;530.38;;
53757;SDS011;39674;59.860;30.672;2022-11-15T17:32:01;444.30;;;419.13;;
53757;SDS011;39674;59.860;30.672;2022-11-15T17:34:34;515.20;;;485.55;;
53757;SDS011;39674;59.860;30.672;2022-11-15T17:37:06;521.90;;;491.05;;
53757;SDS011;39674;59.860;30.672;2022-11-15T17:39:38;532.67;;;500.65;;
53757;SDS011;39674;59.860;30.672;2022-11-15T17:42:14;542.08;;;508.77;;
53757;SDS011;39674;59.860;30.672;2022-11-15T17:44:47;577.90;;;543.13;;
53757;SDS011;39674;59.860;30.672;2022-11-15T17:50:29;529.22;;;498.48;;
53757;SDS011;39674;59.860;30.672;2022-11-15T17:53:01;557.30;;;523.45;;
53757;SDS011;39674;59.860;30.672;2022-11-15T17:55:31;571.90;;;537.35;;
53757;SDS011;39674;59.860;30.672;2022-11-15T17:58:04;572.72;;;538.22;;
53757;SDS011;39674;59.860;30.672;2022-11-15T18:00:50;523.33;;;491.65;;
53757;SDS011;39674;59.860;30.672;2022-11-15T18:03:22;547.83;;;514.15;;
53757;SDS011;39674;59.860;30.672;2022-11-15T18:08:30;438.40;;;413.42;;
53757;SDS011;39674;59.860;30.672;2022-11-15T18:11:14;523.65;;;493.38;;
53757;SDS011;39674;59.860;30.672;2022-11-15T18:13:51;534.50;;;502.67;;
53757;SDS011;39674;59.860;30.672;2022-11-15T18:16:28;496.38;;;467.15;;
53757;SDS011;39674;59.860;30.672;2022-11-15T18:19:13;508.42;;;478.05;;
53757;SDS011;39674;59.860;30.672;2022-11-15T18:21:46;509.40;;;478.88;;
53757;SDS011;39674;59.860;30.672;2022-11-15T18:24:43;517.78;;;486.83;;
53757;SDS011;39674;59.860;30.672;2022-11-15T18:27:17;538.13;;;505.52;;